Ascot, United Kingdom

2:34 PM GMT on February 08, 2016 (GMT +0000)
IBERKSWI1 | | Change Station
CLOSE
Current Station
Personal Weather Station
Location: Ascot, BERKS
Elevation: 243 ft
Nearby Weather Stations

Elev 243 ft 51.42 °N, 0.68 °W | Updated 22 seconds ago

Overcast
Overcast
46.7 °F
Feels Like 38 °F
N
24.2
Wind Variable Wind from WNW
Gusts 24.2 mph

Today
High -- | Low -- °F
--% Chance of Precip.
Yesterday
High -- | Low -- °F
Precip. -- in
Pressure 29.12 in
Visibility 6.2 miles
Clouds Mostly Cloudy 3000 ft
Windchill 38 °F
Dew Point 42 °F
Humidity 84%
Rainfall 0.11 in
Snow Depth Not available.
7:30 AM 5:04 PM
Waning Crescent, 0% visible
METAR EGLF 081420Z 25029G43KT 9999 -RA BKN030 09/03 Q0986
Pressure 29.12 in
Visibility 6.2 miles
Clouds Mostly Cloudy 3000 ft
Windchill 38 °F
Dew Point 42 °F
Humidity 84%
Rainfall 0.11 in
Snow Depth Not available.
7:30 AM 5:04 PM
Waning Crescent, 0% visible
METAR EGLF 081420Z 25029G43KT 9999 -RA BKN030 09/03 Q0986

10-Day Weather Forecast

Almanac

Astronomy

Feb. 08, 2016 Rise Set
Actual Time
Civil Twilight
Nautical Twilight
Astronomical Twilight
Moon
Length of Visible Light
Length of Day
Tomorrow will be .
, % of the Moon is Illuminated

Today's Extremes

Country Highs Country Lows

Community

WunderPhotos

Upload Photos

1,891,437 photos uploaded!

WunderBlog® & News

Nearby

Air Quality

  Air Quality AQ Index Pollutant
Not available.

Snow Depth

Station Depth Elevation

Earthquake Activity

City Distance Mag. Time & Date
Minimum magnitude displayed is 2.5.

Coastal Water Temperatures

Place Temperature

Stations

Nearby Weather Stations

Station Location Temp. Windchill Dew Point Humidity Wind Precip. Elev Updated Type